Airfield :
LOGIN :

Register | Disclaimer

   EN    FR    IT 

 










Legend :    VFR   Marginal VFR   IFR   Intensive IFR   Very Intensive IFR
Visi :
Ceiling :
>= 8 km
>= 3000ft
5 to 8 km
1000 to 3000 ft
1500m to 5 km
500 to 1000 ft
800 to 1500m
200 to 500 ft
< 800m
< 200 ft
Symbols :   Thunderstorms  Fog  Heavy snow  Heavy precipitations  Wind > 20 kt
SIGMETs :     Misc.  Thunderstorms  Icing  Turbulence  Mountain Waves  Volcanic Ashes







- Airport Elevation : 913 ft
- Download approach charts


LFSX - Luxeuil

CURRENT METAR :
  • 240830Z AUTO VRB03KT CAVOK 19/10 Q1002

EXPIRED METARs :
  • 240800Z AUTO VRB02KT CAVOK 18/12 Q1002
  • 240730Z AUTO 13003KT 080V150 CAVOK 15/11 Q1002
  • 240700Z AUTO VRB01KT CAVOK 13/10 Q1002
  • 240630Z AUTO 00000KT CAVOK 13/10 Q1002
  • 240600Z AUTO 23001KT CAVOK 11/09 Q1001

TAF TAF LFSX
Valid from the 24 at 09:00 until the 25 at 09:00 UTC


240800Z 2409/2509 12005KT CAVOK
BECMG 2411/2413 22015G25KT
TEMPO 2411/2416 21025G35KT 4000 SHRA BKN050TCU
PROB40
TEMPO 2411/2415 24035G45KT 1500 TSRA BKN040CB
BECMG 2420/2422 18005KT
No reported NOTAMs for that airfield.
1 SIGMET reported for the Reims FIR (LFEE) :
 
Severe turbulence
LFEE SIGMET 1 VALID 240700/241100 LFPW
LFEE REIMS FIR/UIR SEV TURB FCST WI N4630 E00500 - N4630 E00445 - N4715 E00430 - N4745 E00445 - N4630 E00500 SFC/FL080 STNR INTSF=



MET'MAP, your aeronautical weather chart ! - Copyright ORBIFLY December 2007 - Disclaimer

ORBIFLY MET'MAP TEAM :

Programming & Development : Alexandra Zaïnal
Concept & Development : Baudouin d'Aumeries
Co-Development & Prog : Marc-Olivier Méhu
Technical & hardware support : Manuel Goepfert

Contact : metmap@orbifly.com




SOURCES & CREDITS :

   NOAA